sensor_id;sensor_type;location;lat;lon;timestamp;P1;durP1;ratioP1;P2;durP2;ratioP2
75044;SDS011;63614;56.026;35.960;2023-07-31T00:01:26;16.67;;;4.00;;
75044;SDS011;63614;56.026;35.960;2023-07-31T00:03:51;7.43;;;3.85;;
75044;SDS011;63614;56.026;35.960;2023-07-31T00:06:17;17.02;;;3.67;;
75044;SDS011;63614;56.026;35.960;2023-07-31T00:08:43;17.65;;;4.15;;
75044;SDS011;63614;56.026;35.960;2023-07-31T00:11:09;9.93;;;3.75;;
75044;SDS011;63614;56.026;35.960;2023-07-31T00:13:34;14.43;;;4.22;;
75044;SDS011;63614;56.026;35.960;2023-07-31T00:16:00;5.50;;;3.08;;
75044;SDS011;63614;56.026;35.960;2023-07-31T00:18:26;21.90;;;4.00;;
75044;SDS011;63614;56.026;35.960;2023-07-31T00:20:52;15.45;;;3.50;;
75044;SDS011;63614;56.026;35.960;2023-07-31T00:23:18;13.63;;;3.60;;
75044;SDS011;63614;56.026;35.960;2023-07-31T00:25:43;8.00;;;3.35;;
75044;SDS011;63614;56.026;35.960;2023-07-31T00:28:09;11.82;;;3.63;;
75044;SDS011;63614;56.026;35.960;2023-07-31T00:30:35;12.18;;;3.53;;
75044;SDS011;63614;56.026;35.960;2023-07-31T00:33:01;7.18;;;3.33;;
75044;SDS011;63614;56.026;35.960;2023-07-31T00:35:27;9.18;;;3.45;;
75044;SDS011;63614;56.026;35.960;2023-07-31T00:37:53;7.38;;;3.63;;
75044;SDS011;63614;56.026;35.960;2023-07-31T00:40:19;11.00;;;3.35;;
75044;SDS011;63614;56.026;35.960;2023-07-31T00:42:45;11.63;;;3.42;;
75044;SDS011;63614;56.026;35.960;2023-07-31T00:45:11;11.77;;;3.33;;
75044;SDS011;63614;56.026;35.960;2023-07-31T00:47:36;10.55;;;3.03;;
75044;SDS011;63614;56.026;35.960;2023-07-31T00:50:03;14.23;;;3.53;;
75044;SDS011;63614;56.026;35.960;2023-07-31T00:52:30;13.48;;;3.22;;
75044;SDS011;63614;56.026;35.960;2023-07-31T00:54:56;7.18;;;3.38;;
75044;SDS011;63614;56.026;35.960;2023-07-31T00:57:22;9.23;;;3.30;;
75044;SDS011;63614;56.026;35.960;2023-07-31T00:59:50;12.45;;;3.50;;
75044;SDS011;63614;56.026;35.960;2023-07-31T01:02:16;7.30;;;3.13;;
75044;SDS011;63614;56.026;35.960;2023-07-31T01:04:42;18.00;;;3.50;;
75044;SDS011;63614;56.026;35.960;2023-07-31T01:07:13;8.20;;;3.33;;
75044;SDS011;63614;56.026;35.960;2023-07-31T01:10:08;16.30;;;3.72;;
75044;SDS011;63614;56.026;35.960;2023-07-31T01:12:41;13.77;;;3.40;;
75044;SDS011;63614;56.026;35.960;2023-07-31T01:15:08;13.30;;;3.22;;
75044;SDS011;63614;56.026;35.960;2023-07-31T01:17:38;14.35;;;3.00;;
75044;SDS011;63614;56.026;35.960;2023-07-31T01:20:12;10.13;;;3.08;;
75044;SDS011;63614;56.026;35.960;2023-07-31T01:22:50;7.90;;;3.03;;
75044;SDS011;63614;56.026;35.960;2023-07-31T01:31:13;5.22;;;3.10;;
75044;SDS011;63614;56.026;35.960;2023-07-31T01:33:43;7.38;;;2.92;;
75044;SDS011;63614;56.026;35.960;2023-07-31T01:36:10;11.38;;;3.63;;
75044;SDS011;63614;56.026;35.960;2023-07-31T01:38:36;6.77;;;3.70;;
75044;SDS011;63614;56.026;35.960;2023-07-31T01:41:02;8.10;;;3.08;;
75044;SDS011;63614;56.026;35.960;2023-07-31T01:43:28;10.15;;;3.28;;
75044;SDS011;63614;56.026;35.960;2023-07-31T01:45:55;11.23;;;3.47;;
75044;SDS011;63614;56.026;35.960;2023-07-31T01:48:20;8.65;;;3.42;;
75044;SDS011;63614;56.026;35.960;2023-07-31T01:50:46;8.32;;;3.65;;
75044;SDS011;63614;56.026;35.960;2023-07-31T01:53:12;6.90;;;3.50;;
75044;SDS011;63614;56.026;35.960;2023-07-31T01:55:38;10.90;;;3.55;;
75044;SDS011;63614;56.026;35.960;2023-07-31T01:58:04;13.63;;;3.45;;
75044;SDS011;63614;56.026;35.960;2023-07-31T02:00:30;9.20;;;3.42;;
75044;SDS011;63614;56.026;35.960;2023-07-31T02:02:56;21.20;;;3.40;;
75044;SDS011;63614;56.026;35.960;2023-07-31T02:05:22;14.63;;;3.47;;
75044;SDS011;63614;56.026;35.960;2023-07-31T02:07:48;16.33;;;3.50;;
75044;SDS011;63614;56.026;35.960;2023-07-31T02:10:14;7.25;;;3.20;;
75044;SDS011;63614;56.026;35.960;2023-07-31T02:12:40;14.63;;;3.00;;
75044;SDS011;63614;56.026;35.960;2023-07-31T02:15:06;16.13;;;3.40;;
75044;SDS011;63614;56.026;35.960;2023-07-31T02:17:33;14.40;;;3.42;;
75044;SDS011;63614;56.026;35.960;2023-07-31T02:19:59;10.40;;;3.38;;
75044;SDS011;63614;56.026;35.960;2023-07-31T02:24:52;12.73;;;3.33;;
75044;SDS011;63614;56.026;35.960;2023-07-31T02:29:49;12.95;;;3.38;;
75044;SDS011;63614;56.026;35.960;2023-07-31T02:32:15;7.47;;;3.10;;
75044;SDS011;63614;56.026;35.960;2023-07-31T02:34:40;6.50;;;2.88;;
75044;SDS011;63614;56.026;35.960;2023-07-31T02:37:06;12.35;;;2.88;;
75044;SDS011;63614;56.026;35.960;2023-07-31T02:39:32;11.07;;;3.00;;
75044;SDS011;63614;56.026;35.960;2023-07-31T02:41:59;17.67;;;3.20;;
75044;SDS011;63614;56.026;35.960;2023-07-31T02:46:51;15.55;;;2.72;;
75044;SDS011;63614;56.026;35.960;2023-07-31T02:49:17;9.77;;;2.85;;
75044;SDS011;63614;56.026;35.960;2023-07-31T02:51:43;6.68;;;2.70;;
75044;SDS011;63614;56.026;35.960;2023-07-31T02:54:08;15.60;;;3.00;;
75044;SDS011;63614;56.026;35.960;2023-07-31T02:56:34;9.85;;;2.78;;
75044;SDS011;63614;56.026;35.960;2023-07-31T02:59:00;9.30;;;3.05;;
75044;SDS011;63614;56.026;35.960;2023-07-31T03:01:26;11.57;;;3.00;;
75044;SDS011;63614;56.026;35.960;2023-07-31T03:03:52;7.50;;;3.03;;
75044;SDS011;63614;56.026;35.960;2023-07-31T03:06:18;5.25;;;2.72;;
75044;SDS011;63614;56.026;35.960;2023-07-31T03:08:44;15.10;;;2.72;;
75044;SDS011;63614;56.026;35.960;2023-07-31T03:11:10;6.90;;;2.70;;
75044;SDS011;63614;56.026;35.960;2023-07-31T03:13:36;8.48;;;2.85;;
75044;SDS011;63614;56.026;35.960;2023-07-31T03:16:01;15.27;;;2.60;;
75044;SDS011;63614;56.026;35.960;2023-07-31T03:18:27;13.75;;;2.65;;
75044;SDS011;63614;56.026;35.960;2023-07-31T03:20:53;7.32;;;2.70;;
75044;SDS011;63614;56.026;35.960;2023-07-31T03:23:19;14.63;;;2.65;;
75044;SDS011;63614;56.026;35.960;2023-07-31T03:25:58;9.38;;;2.60;;
75044;SDS011;63614;56.026;35.960;2023-07-31T03:28:28;7.28;;;2.78;;
75044;SDS011;63614;56.026;35.960;2023-07-31T03:30:54;9.05;;;2.67;;
75044;SDS011;63614;56.026;35.960;2023-07-31T03:33:20;5.43;;;2.60;;
75044;SDS011;63614;56.026;35.960;2023-07-31T03:35:46;10.18;;;3.00;;
75044;SDS011;63614;56.026;35.960;2023-07-31T03:38:12;10.83;;;3.50;;
75044;SDS011;63614;56.026;35.960;2023-07-31T03:43:05;11.82;;;3.20;;
75044;SDS011;63614;56.026;35.960;2023-07-31T03:45:31;8.10;;;2.97;;
75044;SDS011;63614;56.026;35.960;2023-07-31T03:47:57;7.00;;;3.78;;
75044;SDS011;63614;56.026;35.960;2023-07-31T03:50:24;6.60;;;3.25;;
75044;SDS011;63614;56.026;35.960;2023-07-31T03:52:51;11.93;;;4.17;;
75044;SDS011;63614;56.026;35.960;2023-07-31T03:55:17;12.60;;;3.50;;
75044;SDS011;63614;56.026;35.960;2023-07-31T03:57:43;9.88;;;3.60;;
75044;SDS011;63614;56.026;35.960;2023-07-31T04:00:09;5.00;;;3.70;;
75044;SDS011;63614;56.026;35.960;2023-07-31T04:02:41;13.65;;;4.00;;
75044;SDS011;63614;56.026;35.960;2023-07-31T04:05:07;12.02;;;4.05;;
75044;SDS011;63614;56.026;35.960;2023-07-31T04:07:33;10.60;;;4.13;;
75044;SDS011;63614;56.026;35.960;2023-07-31T04:10:00;10.57;;;4.43;;
75044;SDS011;63614;56.026;35.960;2023-07-31T04:12:26;8.00;;;3.47;;
75044;SDS011;63614;56.026;35.960;2023-07-31T04:14:52;8.05;;;3.50;;
75044;SDS011;63614;56.026;35.960;2023-07-31T04:17:18;7.72;;;3.60;;
75044;SDS011;63614;56.026;35.960;2023-07-31T04:19:44;12.95;;;3.78;;
75044;SDS011;63614;56.026;35.960;2023-07-31T04:22:10;15.60;;;4.30;;
75044;SDS011;63614;56.026;35.960;2023-07-31T04:24:35;11.47;;;4.07;;
75044;SDS011;63614;56.026;35.960;2023-07-31T04:27:01;7.45;;;3.45;;
75044;SDS011;63614;56.026;35.960;2023-07-31T04:29:27;9.77;;;4.43;;
75044;SDS011;63614;56.026;35.960;2023-07-31T04:31:53;12.20;;;4.30;;
75044;SDS011;63614;56.026;35.960;2023-07-31T04:34:19;8.18;;;3.40;;
75044;SDS011;63614;56.026;35.960;2023-07-31T04:36:44;6.45;;;3.47;;
75044;SDS011;63614;56.026;35.960;2023-07-31T04:39:10;10.07;;;3.40;;
75044;SDS011;63614;56.026;35.960;2023-07-31T04:41:36;5.28;;;3.53;;
75044;SDS011;63614;56.026;35.960;2023-07-31T04:44:02;10.13;;;3.67;;
75044;SDS011;63614;56.026;35.960;2023-07-31T04:46:29;10.98;;;3.30;;
75044;SDS011;63614;56.026;35.960;2023-07-31T04:48:55;6.05;;;3.20;;
75044;SDS011;63614;56.026;35.960;2023-07-31T04:51:22;9.07;;;4.13;;
75044;SDS011;63614;56.026;35.960;2023-07-31T04:53:49;6.05;;;4.00;;
75044;SDS011;63614;56.026;35.960;2023-07-31T04:56:15;11.27;;;3.77;;
75044;SDS011;63614;56.026;35.960;2023-07-31T05:01:07;7.53;;;3.78;;
75044;SDS011;63614;56.026;35.960;2023-07-31T05:03:33;10.32;;;4.28;;
75044;SDS011;63614;56.026;35.960;2023-07-31T05:05:58;5.82;;;3.25;;
75044;SDS011;63614;56.026;35.960;2023-07-31T05:08:24;5.82;;;3.40;;
75044;SDS011;63614;56.026;35.960;2023-07-31T05:10:50;9.23;;;2.90;;
75044;SDS011;63614;56.026;35.960;2023-07-31T05:13:16;5.57;;;2.80;;
75044;SDS011;63614;56.026;35.960;2023-07-31T05:15:41;6.68;;;2.90;;
75044;SDS011;63614;56.026;35.960;2023-07-31T05:18:07;10.25;;;2.83;;
75044;SDS011;63614;56.026;35.960;2023-07-31T05:20:33;9.95;;;2.75;;
75044;SDS011;63614;56.026;35.960;2023-07-31T05:22:59;4.63;;;2.80;;
75044;SDS011;63614;56.026;35.960;2023-07-31T05:25:25;4.32;;;2.70;;
75044;SDS011;63614;56.026;35.960;2023-07-31T05:27:50;11.07;;;2.88;;
75044;SDS011;63614;56.026;35.960;2023-07-31T05:30:16;5.78;;;2.92;;
75044;SDS011;63614;56.026;35.960;2023-07-31T05:32:42;5.13;;;2.50;;
75044;SDS011;63614;56.026;35.960;2023-07-31T05:35:08;5.18;;;2.45;;
75044;SDS011;63614;56.026;35.960;2023-07-31T05:37:34;5.10;;;2.40;;
75044;SDS011;63614;56.026;35.960;2023-07-31T05:40:00;8.63;;;2.78;;
75044;SDS011;63614;56.026;35.960;2023-07-31T05:42:26;5.88;;;2.83;;
75044;SDS011;63614;56.026;35.960;2023-07-31T05:44:51;5.63;;;2.80;;
75044;SDS011;63614;56.026;35.960;2023-07-31T05:47:17;7.18;;;3.00;;
75044;SDS011;63614;56.026;35.960;2023-07-31T05:49:43;14.38;;;2.78;;
75044;SDS011;63614;56.026;35.960;2023-07-31T05:54:35;12.52;;;2.67;;
75044;SDS011;63614;56.026;35.960;2023-07-31T05:57:00;7.07;;;2.50;;
75044;SDS011;63614;56.026;35.960;2023-07-31T05:59:26;8.02;;;2.50;;
75044;SDS011;63614;56.026;35.960;2023-07-31T06:04:18;4.88;;;2.60;;
75044;SDS011;63614;56.026;35.960;2023-07-31T06:06:44;3.85;;;2.28;;
75044;SDS011;63614;56.026;35.960;2023-07-31T06:09:10;7.55;;;2.20;;
75044;SDS011;63614;56.026;35.960;2023-07-31T06:11:37;4.43;;;2.00;;
75044;SDS011;63614;56.026;35.960;2023-07-31T06:14:02;13.77;;;2.05;;
75044;SDS011;63614;56.026;35.960;2023-07-31T06:16:28;4.35;;;2.00;;
75044;SDS011;63614;56.026;35.960;2023-07-31T06:18:54;4.07;;;1.90;;
75044;SDS011;63614;56.026;35.960;2023-07-31T06:21:20;3.63;;;1.97;;
75044;SDS011;63614;56.026;35.960;2023-07-31T06:23:45;5.20;;;2.60;;
75044;SDS011;63614;56.026;35.960;2023-07-31T06:26:11;6.47;;;2.27;;
75044;SDS011;63614;56.026;35.960;2023-07-31T06:28:37;8.67;;;1.93;;
75044;SDS011;63614;56.026;35.960;2023-07-31T06:31:03;6.40;;;2.87;;
75044;SDS011;63614;56.026;35.960;2023-07-31T06:33:29;19.17;;;3.00;;
75044;SDS011;63614;56.026;35.960;2023-07-31T06:35:54;6.33;;;2.20;;
75044;SDS011;63614;56.026;35.960;2023-07-31T06:38:24;9.03;;;2.27;;
75044;SDS011;63614;56.026;35.960;2023-07-31T06:40:50;3.50;;;1.80;;
75044;SDS011;63614;56.026;35.960;2023-07-31T06:43:17;12.75;;;2.00;;
75044;SDS011;63614;56.026;35.960;2023-07-31T06:45:42;7.63;;;2.03;;
75044;SDS011;63614;56.026;35.960;2023-07-31T06:48:08;4.27;;;1.70;;
75044;SDS011;63614;56.026;35.960;2023-07-31T06:50:34;3.33;;;1.60;;
75044;SDS011;63614;56.026;35.960;2023-07-31T06:53:00;8.23;;;2.00;;
75044;SDS011;63614;56.026;35.960;2023-07-31T06:55:26;2.70;;;1.67;;
75044;SDS011;63614;56.026;35.960;2023-07-31T06:57:53;4.55;;;1.95;;
75044;SDS011;63614;56.026;35.960;2023-07-31T07:00:20;12.27;;;1.85;;
75044;SDS011;63614;56.026;35.960;2023-07-31T07:02:47;9.70;;;2.00;;
75044;SDS011;63614;56.026;35.960;2023-07-31T07:05:14;4.93;;;2.13;;
75044;SDS011;63614;56.026;35.960;2023-07-31T07:07:40;4.95;;;2.28;;
75044;SDS011;63614;56.026;35.960;2023-07-31T07:10:07;8.25;;;2.70;;
75044;SDS011;63614;56.026;35.960;2023-07-31T07:12:34;11.73;;;3.30;;
75044;SDS011;63614;56.026;35.960;2023-07-31T07:17:27;3.65;;;1.70;;
75044;SDS011;63614;56.026;35.960;2023-07-31T07:19:55;5.72;;;2.05;;
75044;SDS011;63614;56.026;35.960;2023-07-31T07:22:21;10.73;;;2.42;;
75044;SDS011;63614;56.026;35.960;2023-07-31T07:24:47;12.53;;;3.30;;
75044;SDS011;63614;56.026;35.960;2023-07-31T07:27:13;8.57;;;2.70;;
75044;SDS011;63614;56.026;35.960;2023-07-31T07:29:38;4.70;;;2.20;;
75044;SDS011;63614;56.026;35.960;2023-07-31T07:32:04;7.70;;;2.10;;
75044;SDS011;63614;56.026;35.960;2023-07-31T07:34:34;8.90;;;2.00;;
75044;SDS011;63614;56.026;35.960;2023-07-31T07:37:00;9.37;;;2.10;;
75044;SDS011;63614;56.026;35.960;2023-07-31T07:39:26;7.50;;;1.73;;
75044;SDS011;63614;56.026;35.960;2023-07-31T07:41:52;8.23;;;1.70;;
75044;SDS011;63614;56.026;35.960;2023-07-31T07:44:19;5.90;;;1.80;;
75044;SDS011;63614;56.026;35.960;2023-07-31T07:46:45;5.43;;;2.00;;
75044;SDS011;63614;56.026;35.960;2023-07-31T07:49:11;6.83;;;2.17;;
75044;SDS011;63614;56.026;35.960;2023-07-31T07:51:36;5.87;;;2.30;;
75044;SDS011;63614;56.026;35.960;2023-07-31T07:54:02;6.40;;;1.90;;
75044;SDS011;63614;56.026;35.960;2023-07-31T07:56:28;16.85;;;3.03;;
75044;SDS011;63614;56.026;35.960;2023-07-31T07:58:54;4.80;;;2.10;;
75044;SDS011;63614;56.026;35.960;2023-07-31T08:01:20;3.97;;;1.80;;
75044;SDS011;63614;56.026;35.960;2023-07-31T08:03:47;5.75;;;2.10;;
75044;SDS011;63614;56.026;35.960;2023-07-31T08:08:39;4.22;;;2.08;;
75044;SDS011;63614;56.026;35.960;2023-07-31T08:11:05;6.00;;;2.33;;
75044;SDS011;63614;56.026;35.960;2023-07-31T08:13:31;11.02;;;1.90;;
75044;SDS011;63614;56.026;35.960;2023-07-31T08:15:57;3.23;;;2.03;;
75044;SDS011;63614;56.026;35.960;2023-07-31T08:18:23;4.53;;;2.37;;
75044;SDS011;63614;56.026;35.960;2023-07-31T08:20:49;8.00;;;2.10;;
75044;SDS011;63614;56.026;35.960;2023-07-31T08:23:14;7.87;;;2.17;;
75044;SDS011;63614;56.026;35.960;2023-07-31T08:25:40;7.20;;;2.27;;
75044;SDS011;63614;56.026;35.960;2023-07-31T08:28:06;4.50;;;1.80;;
75044;SDS011;63614;56.026;35.960;2023-07-31T08:30:32;10.30;;;2.07;;
75044;SDS011;63614;56.026;35.960;2023-07-31T08:32:59;12.68;;;2.30;;
75044;SDS011;63614;56.026;35.960;2023-07-31T08:35:26;2.60;;;1.65;;
75044;SDS011;63614;56.026;35.960;2023-07-31T08:37:54;3.47;;;1.80;;
75044;SDS011;63614;56.026;35.960;2023-07-31T08:40:20;8.55;;;2.92;;
75044;SDS011;63614;56.026;35.960;2023-07-31T08:42:48;8.52;;;2.20;;
75044;SDS011;63614;56.026;35.960;2023-07-31T08:45:16;8.15;;;2.08;;
75044;SDS011;63614;56.026;35.960;2023-07-31T08:47:47;4.65;;;1.95;;
75044;SDS011;63614;56.026;35.960;2023-07-31T08:50:20;5.25;;;1.90;;
75044;SDS011;63614;56.026;35.960;2023-07-31T08:52:47;6.28;;;2.30;;
75044;SDS011;63614;56.026;35.960;2023-07-31T08:55:14;3.38;;;1.65;;
75044;SDS011;63614;56.026;35.960;2023-07-31T08:57:39;4.47;;;1.50;;
75044;SDS011;63614;56.026;35.960;2023-07-31T09:00:08;10.05;;;1.85;;
75044;SDS011;63614;56.026;35.960;2023-07-31T09:05:14;10.50;;;3.20;;
75044;SDS011;63614;56.026;35.960;2023-07-31T09:07:42;24.38;;;6.13;;
75044;SDS011;63614;56.026;35.960;2023-07-31T09:10:12;7.38;;;2.63;;
75044;SDS011;63614;56.026;35.960;2023-07-31T09:12:38;11.30;;;2.10;;
75044;SDS011;63614;56.026;35.960;2023-07-31T09:15:04;3.13;;;1.77;;
75044;SDS011;63614;56.026;35.960;2023-07-31T09:20:18;6.93;;;2.28;;
75044;SDS011;63614;56.026;35.960;2023-07-31T09:22:47;7.13;;;2.30;;
75044;SDS011;63614;56.026;35.960;2023-07-31T09:25:18;8.00;;;2.10;;
75044;SDS011;63614;56.026;35.960;2023-07-31T09:27:58;10.52;;;2.47;;
75044;SDS011;63614;56.026;35.960;2023-07-31T09:30:25;6.32;;;2.40;;
75044;SDS011;63614;56.026;35.960;2023-07-31T09:33:00;6.37;;;2.10;;
75044;SDS011;63614;56.026;35.960;2023-07-31T09:35:31;13.60;;;2.63;;
75044;SDS011;63614;56.026;35.960;2023-07-31T09:37:58;11.23;;;2.30;;
75044;SDS011;63614;56.026;35.960;2023-07-31T09:40:26;3.85;;;2.00;;
75044;SDS011;63614;56.026;35.960;2023-07-31T09:42:59;9.02;;;2.00;;
75044;SDS011;63614;56.026;35.960;2023-07-31T09:48:02;6.25;;;1.80;;
75044;SDS011;63614;56.026;35.960;2023-07-31T09:52:55;6.03;;;2.00;;
75044;SDS011;63614;56.026;35.960;2023-07-31T09:55:21;7.47;;;2.35;;
75044;SDS011;63614;56.026;35.960;2023-07-31T09:57:48;5.75;;;2.10;;
75044;SDS011;63614;56.026;35.960;2023-07-31T10:00:15;8.15;;;2.30;;
75044;SDS011;63614;56.026;35.960;2023-07-31T10:02:46;13.15;;;2.25;;
75044;SDS011;63614;56.026;35.960;2023-07-31T10:05:14;10.13;;;2.60;;
75044;SDS011;63614;56.026;35.960;2023-07-31T10:07:45;10.75;;;2.60;;
75044;SDS011;63614;56.026;35.960;2023-07-31T10:10:31;9.85;;;2.13;;
75044;SDS011;63614;56.026;35.960;2023-07-31T10:13:01;3.72;;;1.77;;
75044;SDS011;63614;56.026;35.960;2023-07-31T10:15:27;8.93;;;2.13;;
75044;SDS011;63614;56.026;35.960;2023-07-31T10:17:55;4.25;;;1.70;;
75044;SDS011;63614;56.026;35.960;2023-07-31T10:20:21;5.15;;;1.73;;
75044;SDS011;63614;56.026;35.960;2023-07-31T10:22:48;4.27;;;1.90;;
75044;SDS011;63614;56.026;35.960;2023-07-31T10:25:17;10.85;;;2.80;;
75044;SDS011;63614;56.026;35.960;2023-07-31T10:27:45;5.88;;;2.40;;
75044;SDS011;63614;56.026;35.960;2023-07-31T10:30:14;4.40;;;2.10;;
75044;SDS011;63614;56.026;35.960;2023-07-31T10:32:43;7.97;;;2.35;;
75044;SDS011;63614;56.026;35.960;2023-07-31T10:35:10;7.63;;;2.00;;
75044;SDS011;63614;56.026;35.960;2023-07-31T10:42:50;5.15;;;2.30;;
75044;SDS011;63614;56.026;35.960;2023-07-31T10:47:58;7.45;;;3.10;;
75044;SDS011;63614;56.026;35.960;2023-07-31T10:50:28;8.90;;;3.72;;
75044;SDS011;63614;56.026;35.960;2023-07-31T10:52:58;6.53;;;3.40;;
75044;SDS011;63614;56.026;35.960;2023-07-31T10:55:25;7.97;;;3.00;;
75044;SDS011;63614;56.026;35.960;2023-07-31T10:57:56;5.47;;;2.90;;
75044;SDS011;63614;56.026;35.960;2023-07-31T11:00:27;16.85;;;3.05;;
75044;SDS011;63614;56.026;35.960;2023-07-31T11:08:17;5.72;;;1.90;;
75044;SDS011;63614;56.026;35.960;2023-07-31T11:10:51;9.65;;;2.40;;
75044;SDS011;63614;56.026;35.960;2023-07-31T11:13:54;6.30;;;2.50;;
75044;SDS011;63614;56.026;35.960;2023-07-31T11:16:21;8.27;;;2.60;;
75044;SDS011;63614;56.026;35.960;2023-07-31T11:18:48;7.28;;;2.40;;
75044;SDS011;63614;56.026;35.960;2023-07-31T11:21:15;5.80;;;2.35;;
75044;SDS011;63614;56.026;35.960;2023-07-31T11:23:46;8.93;;;3.20;;
75044;SDS011;63614;56.026;35.960;2023-07-31T11:28:38;5.65;;;2.40;;
75044;SDS011;63614;56.026;35.960;2023-07-31T11:31:04;3.78;;;2.30;;
75044;SDS011;63614;56.026;35.960;2023-07-31T11:33:30;5.33;;;2.37;;
75044;SDS011;63614;56.026;35.960;2023-07-31T11:35:56;5.32;;;2.35;;
75044;SDS011;63614;56.026;35.960;2023-07-31T11:38:27;4.70;;;2.92;;
75044;SDS011;63614;56.026;35.960;2023-07-31T11:40:55;7.65;;;2.53;;
75044;SDS011;63614;56.026;35.960;2023-07-31T11:43:22;8.07;;;2.85;;
75044;SDS011;63614;56.026;35.960;2023-07-31T11:45:50;6.55;;;2.55;;
75044;SDS011;63614;56.026;35.960;2023-07-31T11:48:21;6.28;;;3.03;;
75044;SDS011;63614;56.026;35.960;2023-07-31T11:51:08;6.45;;;3.60;;
75044;SDS011;63614;56.026;35.960;2023-07-31T11:53:49;13.77;;;3.50;;
75044;SDS011;63614;56.026;35.960;2023-07-31T11:56:33;14.10;;;3.75;;
75044;SDS011;63614;56.026;35.960;2023-07-31T11:58:59;11.57;;;3.70;;
75044;SDS011;63614;56.026;35.960;2023-07-31T12:01:27;6.72;;;2.92;;
75044;SDS011;63614;56.026;35.960;2023-07-31T12:03:54;8.70;;;2.58;;
75044;SDS011;63614;56.026;35.960;2023-07-31T12:06:21;4.40;;;2.13;;
75044;SDS011;63614;56.026;35.960;2023-07-31T12:08:47;3.80;;;2.30;;
75044;SDS011;63614;56.026;35.960;2023-07-31T12:11:14;6.32;;;2.53;;
75044;SDS011;63614;56.026;35.960;2023-07-31T12:13:40;5.27;;;2.13;;
75044;SDS011;63614;56.026;35.960;2023-07-31T12:16:06;4.18;;;2.22;;
75044;SDS011;63614;56.026;35.960;2023-07-31T12:18:34;6.68;;;2.65;;
75044;SDS011;63614;56.026;35.960;2023-07-31T12:21:02;6.13;;;2.42;;
75044;SDS011;63614;56.026;35.960;2023-07-31T12:23:30;4.57;;;2.30;;
75044;SDS011;63614;56.026;35.960;2023-07-31T12:26:10;4.30;;;2.40;;
75044;SDS011;63614;56.026;35.960;2023-07-31T12:28:47;3.58;;;2.15;;
75044;SDS011;63614;56.026;35.960;2023-07-31T12:31:18;6.30;;;2.10;;
75044;SDS011;63614;56.026;35.960;2023-07-31T12:33:46;3.22;;;2.10;;
75044;SDS011;63614;56.026;35.960;2023-07-31T12:36:15;4.97;;;1.95;;
75044;SDS011;63614;56.026;35.960;2023-07-31T12:38:43;8.68;;;2.13;;
75044;SDS011;63614;56.026;35.960;2023-07-31T12:41:09;4.32;;;2.20;;
75044;SDS011;63614;56.026;35.960;2023-07-31T12:43:39;4.40;;;2.13;;
75044;SDS011;63614;56.026;35.960;2023-07-31T12:46:06;3.25;;;1.92;;
75044;SDS011;63614;56.026;35.960;2023-07-31T12:48:36;7.15;;;2.00;;
75044;SDS011;63614;56.026;35.960;2023-07-31T12:51:03;4.10;;;2.17;;
75044;SDS011;63614;56.026;35.960;2023-07-31T12:53:29;4.93;;;2.10;;
75044;SDS011;63614;56.026;35.960;2023-07-31T12:55:55;5.67;;;2.07;;
75044;SDS011;63614;56.026;35.960;2023-07-31T12:58:22;4.55;;;2.25;;
75044;SDS011;63614;56.026;35.960;2023-07-31T13:00:48;2.78;;;1.95;;
75044;SDS011;63614;56.026;35.960;2023-07-31T13:03:14;7.88;;;2.20;;
75044;SDS011;63614;56.026;35.960;2023-07-31T13:05:40;6.95;;;2.75;;
75044;SDS011;63614;56.026;35.960;2023-07-31T13:08:06;5.85;;;2.00;;
75044;SDS011;63614;56.026;35.960;2023-07-31T13:10:33;3.63;;;2.00;;
75044;SDS011;63614;56.026;35.960;2023-07-31T13:12:59;4.43;;;2.10;;
75044;SDS011;63614;56.026;35.960;2023-07-31T13:15:24;4.18;;;2.00;;
75044;SDS011;63614;56.026;35.960;2023-07-31T13:17:50;6.47;;;2.30;;
75044;SDS011;63614;56.026;35.960;2023-07-31T13:20:16;4.15;;;1.88;;
75044;SDS011;63614;56.026;35.960;2023-07-31T13:22:42;3.33;;;1.80;;
75044;SDS011;63614;56.026;35.960;2023-07-31T13:25:08;6.68;;;2.33;;
75044;SDS011;63614;56.026;35.960;2023-07-31T13:27:35;3.83;;;2.10;;
75044;SDS011;63614;56.026;35.960;2023-07-31T13:32:29;5.25;;;2.13;;
75044;SDS011;63614;56.026;35.960;2023-07-31T13:34:55;4.85;;;2.22;;
75044;SDS011;63614;56.026;35.960;2023-07-31T13:37:21;6.47;;;2.13;;
75044;SDS011;63614;56.026;35.960;2023-07-31T13:39:47;4.50;;;2.20;;
75044;SDS011;63614;56.026;35.960;2023-07-31T13:42:13;4.47;;;2.57;;
75044;SDS011;63614;56.026;35.960;2023-07-31T13:44:39;3.60;;;2.27;;
75044;SDS011;63614;56.026;35.960;2023-07-31T13:47:06;7.43;;;2.30;;
75044;SDS011;63614;56.026;35.960;2023-07-31T13:49:32;5.47;;;2.35;;
75044;SDS011;63614;56.026;35.960;2023-07-31T13:51:59;6.90;;;2.17;;
75044;SDS011;63614;56.026;35.960;2023-07-31T13:54:25;4.97;;;2.50;;
75044;SDS011;63614;56.026;35.960;2023-07-31T13:56:53;6.30;;;2.30;;
75044;SDS011;63614;56.026;35.960;2023-07-31T13:59:19;9.00;;;2.10;;
75044;SDS011;63614;56.026;35.960;2023-07-31T14:01:46;3.70;;;2.05;;
75044;SDS011;63614;56.026;35.960;2023-07-31T14:04:12;3.55;;;2.10;;
75044;SDS011;63614;56.026;35.960;2023-07-31T14:06:38;6.87;;;2.40;;
75044;SDS011;63614;56.026;35.960;2023-07-31T14:09:04;4.65;;;2.10;;
75044;SDS011;63614;56.026;35.960;2023-07-31T14:11:31;4.88;;;2.28;;
75044;SDS011;63614;56.026;35.960;2023-07-31T14:16:23;5.97;;;2.33;;
75044;SDS011;63614;56.026;35.960;2023-07-31T14:18:49;4.30;;;2.23;;
75044;SDS011;63614;56.026;35.960;2023-07-31T14:21:15;5.50;;;2.40;;
75044;SDS011;63614;56.026;35.960;2023-07-31T14:23:41;4.50;;;2.30;;
75044;SDS011;63614;56.026;35.960;2023-07-31T14:26:07;6.30;;;2.50;;
75044;SDS011;63614;56.026;35.960;2023-07-31T14:28:34;6.07;;;2.13;;
75044;SDS011;63614;56.026;35.960;2023-07-31T14:31:00;3.42;;;2.13;;
75044;SDS011;63614;56.026;35.960;2023-07-31T14:33:25;4.05;;;2.30;;
75044;SDS011;63614;56.026;35.960;2023-07-31T14:35:51;7.43;;;2.50;;
75044;SDS011;63614;56.026;35.960;2023-07-31T14:38:18;6.40;;;2.33;;
75044;SDS011;63614;56.026;35.960;2023-07-31T14:40:44;12.30;;;2.08;;
75044;SDS011;63614;56.026;35.960;2023-07-31T14:43:10;6.15;;;2.15;;
75044;SDS011;63614;56.026;35.960;2023-07-31T14:45:36;4.30;;;2.13;;
75044;SDS011;63614;56.026;35.960;2023-07-31T14:48:02;4.00;;;2.10;;
75044;SDS011;63614;56.026;35.960;2023-07-31T14:50:28;3.88;;;2.13;;
75044;SDS011;63614;56.026;35.960;2023-07-31T14:52:54;6.53;;;2.33;;
75044;SDS011;63614;56.026;35.960;2023-07-31T14:55:20;3.38;;;2.28;;
75044;SDS011;63614;56.026;35.960;2023-07-31T14:57:46;4.73;;;2.17;;
75044;SDS011;63614;56.026;35.960;2023-07-31T15:00:12;3.92;;;2.05;;
75044;SDS011;63614;56.026;35.960;2023-07-31T15:02:38;5.22;;;2.15;;
75044;SDS011;63614;56.026;35.960;2023-07-31T15:05:04;4.35;;;2.10;;
75044;SDS011;63614;56.026;35.960;2023-07-31T15:10:00;4.43;;;2.20;;
75044;SDS011;63614;56.026;35.960;2023-07-31T15:12:30;4.50;;;2.10;;
75044;SDS011;63614;56.026;35.960;2023-07-31T15:14:58;3.75;;;2.15;;
75044;SDS011;63614;56.026;35.960;2023-07-31T15:17:24;9.45;;;2.58;;
75044;SDS011;63614;56.026;35.960;2023-07-31T15:19:50;9.90;;;3.07;;
75044;SDS011;63614;56.026;35.960;2023-07-31T15:22:16;8.85;;;3.00;;
75044;SDS011;63614;56.026;35.960;2023-07-31T15:24:42;7.47;;;2.95;;
75044;SDS011;63614;56.026;35.960;2023-07-31T15:27:07;3.78;;;2.30;;
75044;SDS011;63614;56.026;35.960;2023-07-31T15:29:34;6.73;;;2.93;;
75044;SDS011;63614;56.026;35.960;2023-07-31T15:32:03;4.13;;;2.40;;